Time;durP1;ratioP1;P1;durP2;ratioP2;P2;SDS_P1;SDS_P2;PMS_P1;PMS_P2;Temp;Humidity;BMP_temperature;BMP_pressure;BME280_temperature;BME280_humidity;BME280_pressure;Samples;Min_cycle;Max_cycle;Signal;HPM_P1;HPM_P2
2021/01/10 00:01:28;;;;;;;11.80;7.75;;;-2.10;99.90;;;;;;4987420;28;20203;-72
2021/01/10 00:03:55;;;;;;;13.63;8.57;;;-2.10;99.90;;;;;;4988388;28;20698;-74
2021/01/10 00:06:21;;;;;;;10.63;7.22;;;-2.00;99.90;;;;;;4987788;28;20215;-74
2021/01/10 00:08:48;;;;;;;11.95;8.25;;;-1.90;99.90;;;;;;4988287;28;20688;-74
2021/01/10 00:11:15;;;;;;;9.85;7.78;;;-1.90;99.90;;;;;;4987263;28;20207;-75
2021/01/10 00:13:42;;;;;;;11.35;8.05;;;-1.90;99.90;;;;;;4986749;28;20627;-75
2021/01/10 00:16:09;;;;;;;9.95;7.57;;;-2.00;99.90;;;;;;4987445;28;20218;-74
2021/01/10 00:18:35;;;;;;;11.80;8.40;;;-1.90;99.90;;;;;;4987408;28;20265;-74
2021/01/10 00:21:01;;;;;;;11.15;7.50;;;-1.90;99.90;;;;;;4983867;28;20691;-73
2021/01/10 00:23:27;;;;;;;12.05;9.18;;;-1.90;99.90;;;;;;4986288;28;20479;-74
2021/01/10 00:25:54;;;;;;;9.98;7.80;;;-1.90;99.90;;;;;;4987590;28;20358;-75
2021/01/10 00:28:20;;;;;;;9.82;7.53;;;-1.90;99.90;;;;;;4987478;28;20693;-72
2021/01/10 00:30:46;;;;;;;11.60;7.18;;;-2.00;99.90;;;;;;4987731;28;20203;-71
2021/01/10 00:33:13;;;;;;;11.98;8.63;;;-2.00;99.90;;;;;;4986948;28;20606;-74
2021/01/10 00:38:07;;;;;;;11.93;7.93;;;-2.00;99.90;;;;;;5008759;28;20574;-73
2021/01/10 00:40:33;;;;;;;12.93;7.63;;;-2.00;99.90;;;;;;4990964;28;20196;-73
2021/01/10 00:42:59;;;;;;;11.52;7.57;;;-2.10;99.90;;;;;;4990474;28;20219;-73
2021/01/10 00:45:26;;;;;;;11.70;9.13;;;-2.00;99.90;;;;;;4990622;28;20231;-73
2021/01/10 00:47:54;;;;;;;14.48;8.48;;;-2.00;99.90;;;;;;4990664;28;20211;-74
2021/01/10 00:50:21;;;;;;;11.68;8.27;;;-2.00;99.90;;;;;;4990817;28;20257;-76
2021/01/10 00:52:47;;;;;;;11.65;7.88;;;-1.90;99.90;;;;;;4990354;28;20207;-75
2021/01/10 00:55:13;;;;;;;10.75;7.70;;;-1.90;99.90;;;;;;4990761;28;20227;-75
2021/01/10 00:57:40;;;;;;;11.43;8.13;;;-1.90;99.90;;;;;;4989586;28;20210;-75
2021/01/10 01:00:11;;;;;;;11.23;7.72;;;-1.90;99.90;;;;;;4990884;28;20230;-74
2021/01/10 01:02:37;;;;;;;10.70;7.45;;;-1.90;99.90;;;;;;4989896;28;20222;-74
2021/01/10 01:05:04;;;;;;;12.18;8.15;;;-1.90;99.90;;;;;;4990520;28;20227;-75
2021/01/10 01:07:31;;;;;;;14.07;8.32;;;-1.90;99.90;;;;;;4997125;28;20207;-75
2021/01/10 01:09:57;;;;;;;12.68;8.30;;;-1.80;99.90;;;;;;4990064;28;20203;-74
2021/01/10 01:12:23;;;;;;;10.80;7.75;;;-1.90;99.90;;;;;;4989937;28;20207;-74
2021/01/10 01:14:49;;;;;;;12.35;8.15;;;-1.90;99.90;;;;;;4990098;28;20234;-74
2021/01/10 01:17:16;;;;;;;12.00;8.02;;;-1.90;99.90;;;;;;4990368;28;20253;-74
2021/01/10 01:19:42;;;;;;;10.55;8.70;;;-1.90;99.90;;;;;;4990080;28;20211;-74
2021/01/10 01:22:08;;;;;;;12.88;7.50;;;-1.90;99.90;;;;;;4990077;28;20641;-76
2021/01/10 01:24:35;;;;;;;10.50;7.78;;;-1.80;99.90;;;;;;4990111;28;20238;-75
2021/01/10 01:27:01;;;;;;;12.05;8.10;;;-1.80;99.90;;;;;;4990172;28;20588;-74
2021/01/10 01:29:27;;;;;;;8.23;6.93;;;-1.80;99.90;;;;;;4990275;28;20210;-73
2021/01/10 01:31:54;;;;;;;13.00;7.75;;;-1.80;99.90;;;;;;4989188;28;20725;-74
2021/01/10 01:34:20;;;;;;;10.65;7.90;;;-1.80;99.90;;;;;;4987986;28;20338;-73
2021/01/10 01:36:46;;;;;;;9.27;7.22;;;-1.80;99.90;;;;;;4995303;28;20590;-74
2021/01/10 01:39:12;;;;;;;11.18;8.00;;;-1.80;99.90;;;;;;4989709;28;20210;-74
2021/01/10 01:41:39;;;;;;;10.68;7.20;;;-1.80;99.90;;;;;;4989309;28;20203;-73
2021/01/10 01:44:06;;;;;;;10.93;7.32;;;-1.80;99.90;;;;;;4989809;28;20230;-72
2021/01/10 01:46:34;;;;;;;11.13;7.20;;;-1.80;99.90;;;;;;4990096;28;20207;-73
2021/01/10 01:49:03;;;;;;;11.35;7.63;;;-1.80;99.90;;;;;;4989657;28;20202;-74
2021/01/10 01:51:30;;;;;;;10.90;7.00;;;-1.80;99.90;;;;;;4990009;28;20226;-73
2021/01/10 01:53:58;;;;;;;9.52;7.03;;;-1.80;99.90;;;;;;4989173;28;20579;-72
2021/01/10 01:56:25;;;;;;;11.65;8.43;;;-1.80;99.90;;;;;;4989840;28;20207;-74
2021/01/10 01:59:03;;;;;;;12.75;8.02;;;-1.80;99.90;;;;;;4989595;28;20199;-74
2021/01/10 02:01:31;;;;;;;11.70;7.43;;;-1.80;99.90;;;;;;4989443;28;20210;-74
2021/01/10 02:04:01;;;;;;;11.77;8.32;;;-1.80;99.90;;;;;;4989021;28;20231;-75
2021/01/10 02:06:37;;;;;;;11.40;8.00;;;-1.80;99.90;;;;;;4996437;28;20640;-75
2021/01/10 02:09:06;;;;;;;13.60;7.45;;;-1.80;99.90;;;;;;4993360;28;20561;-74
2021/01/10 02:11:33;;;;;;;12.55;8.48;;;-1.80;99.90;;;;;;4995715;28;20724;-75
2021/01/10 02:14:05;;;;;;;12.05;8.10;;;-1.80;99.90;;;;;;4996069;28;20232;-74
2021/01/10 02:16:34;;;;;;;14.55;8.82;;;-1.80;99.90;;;;;;4995982;28;20222;-75
2021/01/10 02:19:01;;;;;;;11.50;8.88;;;-1.80;99.90;;;;;;4995982;28;20241;-74
2021/01/10 02:21:27;;;;;;;11.88;8.13;;;-1.80;99.90;;;;;;4995741;28;20277;-74
2021/01/10 02:24:01;;;;;;;13.05;8.23;;;-1.80;99.90;;;;;;4995223;28;20748;-74
2021/01/10 02:26:29;;;;;;;11.13;7.85;;;-1.80;99.90;;;;;;4995901;28;20214;-74
2021/01/10 02:28:56;;;;;;;11.45;7.65;;;-1.80;99.90;;;;;;4995690;28;20241;-74
2021/01/10 02:31:24;;;;;;;10.55;7.13;;;-1.80;99.90;;;;;;4995206;28;20214;-74
2021/01/10 02:33:55;;;;;;;10.98;7.40;;;-1.80;99.90;;;;;;4994973;28;20250;-74
2021/01/10 02:36:26;;;;;;;10.48;7.13;;;-1.80;99.90;;;;;;5002142;28;20225;-74
2021/01/10 02:39:02;;;;;;;11.32;7.70;;;-1.80;99.90;;;;;;4995341;28;20203;-74
2021/01/10 02:41:37;;;;;;;10.13;7.25;;;-1.80;99.90;;;;;;4995837;28;20213;-74
2021/01/10 02:44:11;;;;;;;8.45;6.80;;;-1.90;99.90;;;;;;4995674;28;20230;-74
2021/01/10 02:46:41;;;;;;;10.13;7.97;;;-1.90;99.90;;;;;;4995674;28;20643;-74
2021/01/10 02:49:07;;;;;;;9.93;7.65;;;-2.00;99.90;;;;;;4995501;28;20246;-74
2021/01/10 02:51:33;;;;;;;11.52;7.63;;;-2.00;99.90;;;;;;4995424;28;20232;-74
2021/01/10 02:54:00;;;;;;;8.63;6.88;;;-2.10;99.90;;;;;;4995231;28;20738;-74
2021/01/10 02:56:32;;;;;;;11.25;7.30;;;-2.20;99.90;;;;;;4995794;28;20202;-74
2021/01/10 02:58:59;;;;;;;11.40;6.82;;;-2.20;99.90;;;;;;4995410;28;20746;-74
2021/01/10 03:01:26;;;;;;;10.75;6.72;;;-2.30;99.90;;;;;;4994976;28;20207;-74
2021/01/10 03:03:54;;;;;;;10.30;8.07;;;-2.30;99.90;;;;;;4994764;28;20242;-74
2021/01/10 03:06:21;;;;;;;11.73;7.80;;;-2.30;99.90;;;;;;5002347;28;20206;-74
2021/01/10 03:08:48;;;;;;;10.10;7.15;;;-2.30;99.90;;;;;;4995200;28;20191;-73
2021/01/10 03:11:16;;;;;;;12.02;8.35;;;-2.40;99.90;;;;;;4995663;28;20207;-74
2021/01/10 03:13:42;;;;;;;11.88;7.47;;;-2.40;99.90;;;;;;4994864;28;20589;-74
2021/01/10 03:16:09;;;;;;;10.82;7.70;;;-2.40;99.90;;;;;;4995463;28;20206;-74
2021/01/10 03:18:35;;;;;;;10.57;7.07;;;-2.40;99.90;;;;;;4995596;28;20234;-73
2021/01/10 03:21:01;;;;;;;10.20;7.30;;;-2.40;99.90;;;;;;4991774;28;20211;-73
2021/01/10 03:23:27;;;;;;;11.45;7.50;;;-2.40;99.90;;;;;;4991790;28;20230;-73
2021/01/10 03:25:54;;;;;;;17.50;7.72;;;-2.50;99.90;;;;;;4992421;28;20207;-73
2021/01/10 03:28:21;;;;;;;11.65;7.22;;;-2.50;99.90;;;;;;4992321;28;20207;-73
2021/01/10 03:30:47;;;;;;;11.63;7.28;;;-2.50;99.90;;;;;;4991953;28;20207;-73
2021/01/10 03:33:13;;;;;;;10.95;7.20;;;-2.50;99.90;;;;;;4991724;28;20199;-73
2021/01/10 03:35:39;;;;;;;11.82;7.38;;;-2.60;99.90;;;;;;4993926;28;20223;-73
2021/01/10 03:38:07;;;;;;;9.95;7.50;;;-2.50;99.90;;;;;;4996476;28;20221;-73
2021/01/10 03:40:34;;;;;;;9.63;7.85;;;-2.50;99.90;;;;;;4991841;28;20210;-73
2021/01/10 03:43:00;;;;;;;10.35;7.00;;;-2.40;99.90;;;;;;4991461;28;20227;-73
2021/01/10 03:45:27;;;;;;;10.18;7.43;;;-2.60;99.90;;;;;;4991976;28;20285;-73
2021/01/10 03:47:53;;;;;;;14.75;9.32;;;-2.60;99.90;;;;;;4991753;28;20246;-76
2021/01/10 03:50:19;;;;;;;11.02;8.35;;;-2.50;99.90;;;;;;4991944;28;20686;-75
2021/01/10 03:52:46;;;;;;;11.15;7.30;;;-2.60;99.90;;;;;;4991207;28;20214;-72
2021/01/10 03:55:12;;;;;;;10.93;7.60;;;-2.50;99.90;;;;;;4991786;28;20231;-72
2021/01/10 03:57:39;;;;;;;11.38;7.38;;;-2.60;99.90;;;;;;4991537;28;20211;-72
2021/01/10 04:00:08;;;;;;;11.07;7.43;;;-2.60;99.90;;;;;;4991694;28;20219;-72
2021/01/10 04:02:35;;;;;;;11.23;8.10;;;-2.60;99.90;;;;;;4990883;28;20211;-72
2021/01/10 04:05:01;;;;;;;11.15;7.78;;;-2.60;99.90;;;;;;4991644;28;20226;-71
2021/01/10 04:07:27;;;;;;;10.90;7.70;;;-2.50;99.90;;;;;;4998226;28;20663;-72
2021/01/10 04:09:53;;;;;;;11.32;7.70;;;-2.50;99.90;;;;;;4991279;28;20231;-73
2021/01/10 04:12:20;;;;;;;10.73;7.60;;;-2.40;99.90;;;;;;4991126;28;20207;-73
2021/01/10 04:14:46;;;;;;;11.30;8.00;;;-2.40;99.90;;;;;;4991047;28;20278;-74
2021/01/10 04:17:12;;;;;;;10.50;7.60;;;-2.40;99.90;;;;;;4991363;28;20741;-73
2021/01/10 04:19:39;;;;;;;10.60;7.78;;;-2.40;99.90;;;;;;4991198;28;20206;-74
2021/01/10 04:22:05;;;;;;;11.43;7.90;;;-2.40;99.90;;;;;;4990898;28;20659;-74
2021/01/10 04:24:32;;;;;;;12.65;7.82;;;-2.50;99.90;;;;;;4991238;28;20231;-73
2021/01/10 04:26:58;;;;;;;10.52;7.28;;;-2.40;99.90;;;;;;4991044;28;20203;-73
2021/01/10 04:29:24;;;;;;;11.85;8.35;;;-2.50;99.90;;;;;;4991326;28;20215;-73
2021/01/10 04:31:51;;;;;;;10.73;8.10;;;-2.50;99.90;;;;;;4990100;28;20214;-74
2021/01/10 04:34:17;;;;;;;12.73;8.18;;;-2.40;99.90;;;;;;4991083;28;20269;-74
2021/01/10 04:36:45;;;;;;;11.80;8.15;;;-2.50;99.90;;;;;;4997426;28;20203;-75
2021/01/10 04:39:11;;;;;;;11.38;7.75;;;-2.40;99.90;;;;;;4990818;28;20199;-73
2021/01/10 04:41:39;;;;;;;14.32;8.38;;;-2.40;99.90;;;;;;4990325;28;20255;-73
2021/01/10 04:44:06;;;;;;;17.67;7.82;;;-2.40;99.90;;;;;;4990664;28;20587;-73
2021/01/10 04:46:34;;;;;;;12.25;8.63;;;-2.30;99.90;;;;;;4990859;28;20882;-72
2021/01/10 04:49:01;;;;;;;9.32;7.32;;;-2.20;99.90;;;;;;4990629;28;20210;-73
2021/01/10 04:51:27;;;;;;;9.00;7.05;;;-2.20;99.90;;;;;;4990870;28;20215;-75
2021/01/10 04:53:57;;;;;;;11.77;8.15;;;-2.30;99.90;;;;;;4990096;28;20286;-73
2021/01/10 04:56:28;;;;;;;11.85;7.80;;;-2.20;99.90;;;;;;4990907;28;20285;-73
2021/01/10 04:58:56;;;;;;;14.60;8.50;;;-2.20;99.90;;;;;;4990334;28;20207;-73
2021/01/10 05:01:24;;;;;;;11.93;8.25;;;-2.20;99.90;;;;;;4990382;28;20211;-75
2021/01/10 05:03:53;;;;;;;12.15;8.23;;;-2.20;99.90;;;;;;4988994;28;20285;-76
2021/01/10 05:06:21;;;;;;;9.98;7.10;;;-2.20;99.90;;;;;;4997228;28;20210;-76
2021/01/10 05:08:47;;;;;;;11.93;7.63;;;-2.20;99.90;;;;;;4989979;28;20605;-76
2021/01/10 05:11:15;;;;;;;9.93;7.40;;;-2.10;99.90;;;;;;4990224;28;20203;-76
2021/01/10 05:13:42;;;;;;;8.80;6.82;;;-2.10;99.90;;;;;;4989416;28;20215;-76
2021/01/10 05:16:08;;;;;;;10.80;8.15;;;-2.10;99.90;;;;;;4990132;28;20266;-73
2021/01/10 05:18:34;;;;;;;8.85;6.68;;;-2.10;99.90;;;;;;4990035;28;20203;-73
2021/01/10 05:21:03;;;;;;;8.60;6.22;;;-2.10;99.90;;;;;;4990130;28;20214;-72
2021/01/10 05:23:29;;;;;;;8.40;5.88;;;-2.10;99.90;;;;;;4989511;28;20229;-74
2021/01/10 05:26:05;;;;;;;9.18;6.70;;;-2.10;99.90;;;;;;4989769;28;20203;-73
2021/01/10 05:28:34;;;;;;;10.63;6.78;;;-2.00;99.90;;;;;;4989699;28;20280;-73
2021/01/10 05:31:00;;;;;;;8.25;6.20;;;-2.00;99.90;;;;;;4989722;28;20207;-74
2021/01/10 05:33:27;;;;;;;10.07;5.43;;;-2.00;99.90;;;;;;4989297;28;20604;-74
2021/01/10 05:35:55;;;;;;;9.02;6.60;;;-1.90;99.90;;;;;;4993312;28;20210;-74
2021/01/10 05:38:28;;;;;;;9.57;6.50;;;-1.90;99.90;;;;;;4992427;28;20199;-74
2021/01/10 05:40:56;;;;;;;9.38;6.38;;;-1.90;99.90;;;;;;4989646;28;20278;-76
2021/01/10 05:43:23;;;;;;;7.55;6.13;;;-1.90;99.90;;;;;;4988749;28;20223;-75
2021/01/10 05:45:50;;;;;;;7.88;5.03;;;-1.80;99.90;;;;;;4989634;28;20590;-76
2021/01/10 05:48:17;;;;;;;6.72;5.30;;;-1.80;99.90;;;;;;4989957;28;20207;-75
2021/01/10 05:50:46;;;;;;;6.43;5.03;;;-1.80;99.90;;;;;;4989503;28;20214;-77
2021/01/10 05:53:20;;;;;;;7.85;5.55;;;-1.80;99.90;;;;;;4989225;28;20203;-75
2021/01/10 05:55:54;;;;;;;8.48;6.40;;;-1.80;99.90;;;;;;4989390;28;20214;-76
2021/01/10 05:58:22;;;;;;;7.47;5.85;;;-1.80;99.90;;;;;;4989823;28;20709;-76
2021/01/10 06:00:51;;;;;;;7.45;5.20;;;-1.80;99.90;;;;;;4989297;28;20218;-77
2021/01/10 06:03:22;;;;;;;9.07;5.70;;;-1.80;99.90;;;;;;4988956;28;20251;-76
2021/01/10 06:05:55;;;;;;;7.80;5.70;;;-1.70;99.90;;;;;;4992518;28;20225;-74
2021/01/10 06:08:33;;;;;;;7.85;6.07;;;-1.70;99.90;;;;;;4991857;28;20202;-76
2021/01/10 06:11:22;;;;;;;10.63;6.10;;;-1.70;99.90;;;;;;4988966;28;20199;-76
2021/01/10 06:13:54;;;;;;;7.63;6.25;;;-1.70;99.90;;;;;;4988689;28;20640;-78
2021/01/10 06:16:22;;;;;;;9.50;5.97;;;-1.70;99.90;;;;;;4989403;28;20203;-74
2021/01/10 06:18:52;;;;;;;9.13;6.60;;;-1.70;99.90;;;;;;4989060;28;20261;-74
2021/01/10 06:21:20;;;;;;;6.88;6.07;;;-1.70;99.90;;;;;;4989144;28;20198;-75
2021/01/10 06:23:49;;;;;;;14.93;8.00;;;-1.70;99.90;;;;;;4988402;28;20237;-75
2021/01/10 06:26:18;;;;;;;10.23;7.10;;;-1.70;99.90;;;;;;4989363;28;20203;-74
2021/01/10 06:28:51;;;;;;;10.30;7.72;;;-1.70;99.90;;;;;;4989056;28;20222;-75
2021/01/10 06:31:23;;;;;;;7.25;5.55;;;-1.70;99.90;;;;;;4989302;28;20238;-74
2021/01/10 06:33:55;;;;;;;6.97;5.70;;;-1.70;99.90;;;;;;4989639;28;20223;-75
2021/01/10 06:36:23;;;;;;;7.22;5.30;;;-1.70;99.90;;;;;;5048988;23;20297;-75
2021/01/10 06:38:52;;;;;;;7.15;5.15;;;-1.70;99.90;;;;;;4990050;28;20598;-76
2021/01/10 06:41:43;;;;;;;7.43;5.32;;;-1.80;99.90;;;;;;4990025;28;20203;-76
2021/01/10 06:44:10;;;;;;;7.22;5.43;;;-1.70;99.90;;;;;;4989456;28;20230;-75
2021/01/10 06:46:37;;;;;;;6.72;5.50;;;-1.70;99.90;;;;;;4989756;28;20218;-73
2021/01/10 06:49:04;;;;;;;7.75;6.07;;;-1.80;99.90;;;;;;4988974;28;20592;-73
2021/01/10 06:51:31;;;;;;;7.30;5.38;;;-1.70;99.90;;;;;;4989032;28;20234;-74
2021/01/10 06:54:03;;;;;;;7.20;4.85;;;-1.70;99.90;;;;;;4988386;28;20250;-74
2021/01/10 06:56:30;;;;;;;7.25;5.68;;;-1.70;99.90;;;;;;4991861;28;20203;-75
2021/01/10 06:59:04;;;;;;;8.25;5.65;;;-1.60;99.90;;;;;;4992584;28;20222;-74
2021/01/10 07:01:59;;;;;;;7.30;5.95;;;-1.60;99.90;;;;;;4992703;28;20199;-74
2021/01/10 07:04:47;;;;;;;24.17;15.95;;;-1.60;99.90;;;;;;4992789;28;20234;-74
2021/01/10 07:07:49;;;;;;;24.40;14.85;;;-1.60;99.90;;;;;;4992379;28;20199;-74
2021/01/10 07:10:25;;;;;;;27.45;14.35;;;-1.60;99.90;;;;;;4992451;28;20199;-75
2021/01/10 07:13:24;;;;;;;8.90;6.00;;;-1.60;99.90;;;;;;4991902;28;20709;-74
2021/01/10 07:16:17;;;;;;;6.25;5.22;;;-1.60;99.90;;;;;;4992081;28;20203;-74
2021/01/10 07:18:50;;;;;;;5.72;4.13;;;-1.60;99.90;;;;;;4992361;28;20211;-75
2021/01/10 07:21:29;;;;;;;6.63;5.72;;;-1.60;99.90;;;;;;4992295;28;20698;-74
2021/01/10 07:24:29;;;;;;;6.30;4.70;;;-1.60;99.90;;;;;;4991572;28;20255;-74
2021/01/10 07:26:57;;;;;;;5.40;4.55;;;-1.60;99.90;;;;;;4994524;28;20207;-74
2021/01/10 07:29:26;;;;;;;6.90;5.22;;;-1.50;99.90;;;;;;4994008;28;20204;-73
2021/01/10 07:31:57;;;;;;;7.95;5.30;;;-1.50;99.90;;;;;;4992504;28;20227;-72
2021/01/10 07:34:25;;;;;;;6.10;4.70;;;-1.50;99.90;;;;;;4992147;28;20227;-73
2021/01/10 07:36:53;;;;;;;7.88;4.78;;;-1.50;99.90;;;;;;4991614;28;20218;-71
2021/01/10 07:39:21;;;;;;;7.10;5.07;;;-1.50;99.90;;;;;;4991938;28;20203;-74
2021/01/10 07:41:48;;;;;;;7.93;6.45;;;-1.50;99.90;;;;;;4991079;28;20203;-75
2021/01/10 07:44:17;;;;;;;8.88;7.00;;;-1.50;99.90;;;;;;4991628;28;20328;-74
2021/01/10 07:47:02;;;;;;;9.02;6.53;;;-1.60;99.90;;;;;;4992084;28;20597;-72
2021/01/10 07:49:48;;;;;;;8.10;6.45;;;-1.50;99.90;;;;;;4991753;28;20202;-73
2021/01/10 07:52:15;;;;;;;8.07;6.53;;;-1.40;99.90;;;;;;4986310;28;20237;-74
2021/01/10 07:54:53;;;;;;;11.18;7.25;;;-1.40;99.90;;;;;;4991567;28;20318;-74
2021/01/10 07:57:33;;;;;;;10.63;7.88;;;-1.30;99.90;;;;;;4991820;28;20235;-74
2021/01/10 08:00:24;;;;;;;10.10;7.18;;;-1.30;99.90;;;;;;4991426;28;20210;-74
2021/01/10 08:02:57;;;;;;;10.57;8.25;;;-1.30;99.90;;;;;;4967600;28;20202;-72
2021/01/10 08:05:29;;;;;;;12.55;7.18;;;-1.20;99.90;;;;;;4991847;28;20223;-74
2021/01/10 08:07:58;;;;;;;10.48;7.72;;;-1.20;99.90;;;;;;4988653;28;20214;-75
2021/01/10 08:10:27;;;;;;;10.95;7.22;;;-1.20;99.90;;;;;;4989281;28;20203;-74
2021/01/10 08:12:53;;;;;;;11.80;7.75;;;-1.10;99.90;;;;;;4989464;28;20195;-74
2021/01/10 08:15:19;;;;;;;12.55;8.45;;;-1.10;99.90;;;;;;4990455;28;20305;-74
2021/01/10 08:17:46;;;;;;;38.30;25.45;;;-1.00;99.90;;;;;;4990893;28;20206;-73
2021/01/10 08:20:14;;;;;;;25.95;16.55;;;-1.00;99.90;;;;;;4990794;28;20229;-74
2021/01/10 08:22:41;;;;;;;49.90;27.65;;;-1.00;99.90;;;;;;4990618;28;20582;-74
2021/01/10 08:25:19;;;;;;;16.90;10.52;;;-0.90;99.90;;;;;;4991128;28;20231;-74
2021/01/10 08:27:46;;;;;;;10.85;8.60;;;-0.80;99.90;;;;;;4991108;28;20203;-73
2021/01/10 08:30:15;;;;;;;11.10;7.45;;;-0.80;99.90;;;;;;4990618;28;20223;-73
2021/01/10 08:32:41;;;;;;;11.73;8.15;;;-0.80;99.90;;;;;;4990670;28;20204;-74
2021/01/10 08:35:09;;;;;;;10.43;8.38;;;-0.80;99.90;;;;;;4990863;28;20226;-74
2021/01/10 08:37:36;;;;;;;7.47;6.47;;;-0.70;99.90;;;;;;4991220;28;20265;-74
2021/01/10 08:40:07;;;;;;;10.45;5.60;;;-0.70;99.90;;;;;;4990425;28;20191;-74
2021/01/10 08:42:33;;;;;;;8.55;6.28;;;-0.70;99.90;;;;;;4990553;28;20210;-74
2021/01/10 08:45:14;;;;;;;9.00;6.38;;;-0.70;99.90;;;;;;4990668;28;20234;-73
2021/01/10 08:47:41;;;;;;;6.65;5.78;;;-0.60;99.90;;;;;;4991107;28;20578;-75
2021/01/10 08:50:09;;;;;;;8.93;6.68;;;-0.60;99.90;;;;;;4991543;28;20686;-73
2021/01/10 08:52:35;;;;;;;8.13;5.88;;;-0.50;99.90;;;;;;4989783;28;20199;-75
2021/01/10 08:55:02;;;;;;;8.77;6.45;;;-0.30;99.90;;;;;;4988830;28;20681;-75
2021/01/10 08:57:29;;;;;;;8.30;6.50;;;-0.30;99.90;;;;;;4990353;28;20213;-73
2021/01/10 08:59:56;;;;;;;10.15;7.30;;;-0.20;99.90;;;;;;4990147;28;20206;-75
2021/01/10 09:02:27;;;;;;;6.97;5.65;;;-0.10;99.90;;;;;;4990041;28;20244;-75
2021/01/10 09:04:53;;;;;;;9.50;6.75;;;0.00;99.90;;;;;;4990223;28;20250;-74
2021/01/10 09:07:25;;;;;;;8.07;6.10;;;0.10;99.90;;;;;;4990164;28;20207;-75
2021/01/10 09:09:53;;;;;;;8.55;6.00;;;0.20;99.90;;;;;;4990245;28;20199;-73
2021/01/10 09:12:29;;;;;;;8.35;5.82;;;0.40;99.90;;;;;;4989915;28;20254;-74
2021/01/10 09:14:59;;;;;;;8.05;6.00;;;0.50;99.90;;;;;;4990968;28;20218;-74
2021/01/10 09:17:29;;;;;;;6.60;5.68;;;0.70;99.90;;;;;;4991695;28;20615;-75
2021/01/10 09:20:04;;;;;;;7.25;5.57;;;0.80;99.90;;;;;;4993552;28;20207;-73
2021/01/10 09:22:32;;;;;;;6.65;5.32;;;0.90;99.90;;;;;;4995722;28;20289;-74
2021/01/10 09:24:58;;;;;;;5.97;4.70;;;1.20;99.90;;;;;;4993484;28;20231;-73
2021/01/10 09:27:25;;;;;;;6.32;5.20;;;1.20;99.90;;;;;;4992022;28;20269;-75
2021/01/10 09:30:03;;;;;;;5.93;5.10;;;1.20;99.90;;;;;;4990313;28;20206;-72
2021/01/10 09:32:30;;;;;;;5.65;5.05;;;1.30;99.90;;;;;;4981843;28;20215;-73
2021/01/10 09:34:57;;;;;;;6.80;4.97;;;1.40;99.90;;;;;;4986893;28;20215;-74
2021/01/10 09:37:32;;;;;;;5.38;4.47;;;1.50;99.90;;;;;;4987501;28;20671;-73
2021/01/10 09:40:10;;;;;;;6.60;4.90;;;1.40;99.90;;;;;;4981385;28;20194;-74
2021/01/10 09:42:44;;;;;;;5.75;4.85;;;1.30;99.90;;;;;;4987319;28;20294;-74
2021/01/10 09:45:13;;;;;;;6.22;4.93;;;1.30;99.90;;;;;;4987130;28;20626;-74
2021/01/10 09:47:39;;;;;;;5.70;4.30;;;1.50;99.90;;;;;;4987312;28;20252;-74
2021/01/10 09:50:11;;;;;;;5.28;4.78;;;1.80;99.90;;;;;;4987215;28;20234;-74
2021/01/10 09:52:47;;;;;;;6.70;4.43;;;2.10;99.90;;;;;;4986952;28;20206;-74
2021/01/10 09:55:13;;;;;;;5.47;4.80;;;2.70;99.90;;;;;;4986849;28;20705;-74
2021/01/10 09:57:39;;;;;;;6.03;5.43;;;4.10;99.90;;;;;;4987597;28;20214;-76
2021/01/10 10:00:13;;;;;;;6.53;4.85;;;5.90;99.90;;;;;;4987150;28;20214;-76
2021/01/10 10:02:40;;;;;;;5.10;4.30;;;6.70;99.90;;;;;;4986573;28;20225;-76
2021/01/10 10:05:11;;;;;;;4.07;3.67;;;7.40;99.90;;;;;;4986897;28;20293;-77
2021/01/10 10:07:40;;;;;;;5.03;4.53;;;8.00;98.20;;;;;;4984132;28;20207;-76
2021/01/10 10:10:18;;;;;;;5.20;4.38;;;8.80;98.20;;;;;;4986548;28;20231;-75
2021/01/10 10:12:51;;;;;;;5.72;5.22;;;9.90;96.20;;;;;;4987098;28;20265;-76
2021/01/10 10:15:18;;;;;;;4.65;3.70;;;11.30;93.70;;;;;;4987070;28;20603;-74
2021/01/10 10:17:44;;;;;;;4.03;3.63;;;11.50;91.90;;;;;;4967165;28;20211;-75
2021/01/10 10:20:11;;;;;;;4.30;3.70;;;11.40;91.40;;;;;;4980725;28;20250;-74
2021/01/10 10:22:44;;;;;;;5.45;4.22;;;12.20;90.70;;;;;;4986300;28;20289;-75
2021/01/10 10:25:12;;;;;;;5.05;4.50;;;12.40;88.60;;;;;;4991091;28;20239;-74
2021/01/10 10:27:55;;;;;;;5.28;3.92;;;12.60;86.60;;;;;;4988219;28;20210;-73
2021/01/10 10:30:22;;;;;;;4.90;3.50;;;13.20;87.30;;;;;;4990317;28;20202;-75
2021/01/10 10:32:49;;;;;;;4.10;3.70;;;13.10;85.50;;;;;;4989882;28;20226;-72
2021/01/10 10:35:15;;;;;;;4.35;3.95;;;12.80;84.50;;;;;;4990312;28;20227;-72
2021/01/10 10:37:41;;;;;;;4.50;3.40;;;12.90;85.20;;;;;;4991204;28;20211;-73
2021/01/10 10:40:09;;;;;;;4.90;3.58;;;14.00;85.20;;;;;;4990342;28;20710;-74
2021/01/10 10:42:35;;;;;;;4.80;4.30;;;14.50;81.70;;;;;;4990743;28;20207;-74
2021/01/10 10:45:01;;;;;;;5.18;4.40;;;14.30;80.40;;;;;;4989524;28;20902;-73
2021/01/10 10:47:28;;;;;;;5.43;4.60;;;14.10;80.80;;;;;;4987569;28;20208;-74
2021/01/10 10:49:54;;;;;;;3.78;3.35;;;14.60;78.40;;;;;;4991559;28;20203;-73
2021/01/10 10:52:20;;;;;;;4.10;3.65;;;14.50;78.10;;;;;;4990269;28;20844;-74
2021/01/10 10:54:47;;;;;;;4.43;3.85;;;14.40;79.20;;;;;;4993645;28;20223;-74
2021/01/10 10:57:13;;;;;;;4.43;4.03;;;14.50;78.10;;;;;;4994395;28;20211;-73
2021/01/10 10:59:39;;;;;;;3.88;3.50;;;14.90;78.20;;;;;;4993937;28;20549;-72
2021/01/10 11:02:09;;;;;;;3.70;3.40;;;14.90;78.00;;;;;;4992132;28;20258;-73
2021/01/10 11:04:38;;;;;;;3.63;3.33;;;14.30;77.10;;;;;;4992414;28;20234;-75
2021/01/10 11:07:04;;;;;;;5.32;3.72;;;14.50;78.70;;;;;;4991766;28;20203;-75
2021/01/10 11:09:31;;;;;;;4.38;3.97;;;14.50;76.40;;;;;;4990598;28;20899;-75
2021/01/10 11:11:57;;;;;;;4.68;4.18;;;13.80;77.80;;;;;;4989787;28;20725;-74
2021/01/10 11:14:23;;;;;;;4.40;4.00;;;12.30;79.60;;;;;;4990987;28;20219;-74
2021/01/10 11:16:51;;;;;;;5.15;4.35;;;10.90;81.80;;;;;;4990664;28;20207;-74
2021/01/10 11:19:18;;;;;;;5.88;4.30;;;10.40;83.90;;;;;;4986466;28;20203;-76
2021/01/10 11:21:46;;;;;;;5.45;4.00;;;8.90;86.50;;;;;;4989161;28;20203;-75
2021/01/10 11:24:13;;;;;;;5.28;4.75;;;7.80;90.00;;;;;;4989263;28;20295;-75
2021/01/10 11:26:40;;;;;;;5.60;5.10;;;6.90;90.90;;;;;;4989954;28;20207;-74
2021/01/10 11:29:07;;;;;;;5.57;4.60;;;6.40;91.70;;;;;;4989695;28;20199;-77
2021/01/10 11:31:35;;;;;;;5.47;4.35;;;6.00;93.20;;;;;;4989117;28;20215;-75
2021/01/10 11:34:02;;;;;;;5.75;4.57;;;5.90;92.90;;;;;;4989387;28;20575;-74
2021/01/10 11:36:28;;;;;;;4.63;4.22;;;5.80;93.00;;;;;;4989403;28;20215;-75
2021/01/10 11:38:56;;;;;;;4.97;4.30;;;5.60;93.40;;;;;;4989027;28;20203;-74
2021/01/10 11:41:23;;;;;;;4.93;4.43;;;5.60;93.50;;;;;;4988403;28;20230;-74
2021/01/10 11:43:50;;;;;;;5.07;4.35;;;5.40;93.40;;;;;;4989380;28;20231;-74
2021/01/10 11:46:16;;;;;;;5.43;4.40;;;4.90;94.40;;;;;;4989527;28;20206;-75
2021/01/10 11:48:43;;;;;;;6.50;4.45;;;4.70;94.60;;;;;;4990082;28;20214;-74
2021/01/10 11:51:11;;;;;;;5.00;3.85;;;4.90;94.90;;;;;;4990246;28;20206;-73
2021/01/10 11:53:38;;;;;;;5.55;4.93;;;4.80;94.80;;;;;;4989117;28;20199;-74
2021/01/10 11:56:07;;;;;;;8.20;4.68;;;4.70;95.40;;;;;;4993460;28;20259;-74
2021/01/10 11:58:33;;;;;;;5.80;4.90;;;4.80;95.60;;;;;;4990661;28;20207;-74
2021/01/10 12:01:00;;;;;;;8.93;5.68;;;5.90;94.90;;;;;;4989399;28;20203;-75
2021/01/10 12:03:27;;;;;;;6.47;4.97;;;7.00;93.60;;;;;;4994883;28;20609;-72
2021/01/10 12:05:53;;;;;;;6.45;5.40;;;7.00;93.20;;;;;;4999879;28;20233;-73
2021/01/10 12:08:21;;;;;;;5.63;4.95;;;6.20;93.50;;;;;;5000776;28;20203;-73
2021/01/10 12:10:48;;;;;;;6.47;5.47;;;5.60;94.40;;;;;;4990714;28;20199;-74
2021/01/10 12:13:15;;;;;;;6.43;5.30;;;5.10;95.30;;;;;;4990722;28;20211;-75
2021/01/10 12:15:45;;;;;;;6.70;5.28;;;4.90;95.70;;;;;;4991063;28;20725;-74
2021/01/10 12:18:12;;;;;;;6.15;5.40;;;4.60;95.90;;;;;;4989898;28;20620;-74
2021/01/10 12:20:38;;;;;;;5.82;5.00;;;4.20;96.40;;;;;;4986189;28;20203;-73
2021/01/10 12:23:05;;;;;;;6.13;5.53;;;3.80;97.20;;;;;;4988662;28;20207;-76
2021/01/10 12:25:31;;;;;;;7.15;5.57;;;3.70;97.60;;;;;;4989878;28;20281;-75
2021/01/10 12:28:00;;;;;;;5.97;5.40;;;3.50;97.70;;;;;;4989237;28;20225;-75
2021/01/10 12:30:31;;;;;;;6.40;5.55;;;3.40;98.00;;;;;;4990576;28;20302;-76
2021/01/10 12:32:59;;;;;;;7.30;5.90;;;3.40;98.40;;;;;;4990236;28;20214;-74
2021/01/10 12:35:29;;;;;;;7.32;5.47;;;3.60;98.30;;;;;;4990395;28;20225;-75
2021/01/10 12:37:55;;;;;;;7.13;5.70;;;3.60;98.30;;;;;;4989990;28;20222;-72
2021/01/10 12:40:22;;;;;;;8.35;6.25;;;3.40;98.30;;;;;;4989979;28;20222;-72
2021/01/10 12:42:49;;;;;;;7.78;5.50;;;3.40;98.60;;;;;;4989553;28;20719;-72
2021/01/10 12:45:17;;;;;;;7.63;5.70;;;3.10;98.70;;;;;;4989201;28;20904;-73
2021/01/10 12:47:46;;;;;;;8.18;6.03;;;2.90;98.90;;;;;;4990324;28;20269;-72
2021/01/10 12:50:14;;;;;;;5.63;5.00;;;2.80;99.30;;;;;;4990133;28;20619;-72
2021/01/10 12:52:41;;;;;;;7.72;6.00;;;2.70;99.60;;;;;;4989244;28;20249;-73
2021/01/10 12:55:20;;;;;;;7.50;6.43;;;2.50;99.80;;;;;;4989130;28;20597;-76
2021/01/10 12:57:51;;;;;;;7.03;6.05;;;2.50;99.90;;;;;;4989399;28;20211;-74